Time;durP1;ratioP1;P1;durP2;ratioP2;P2;SDS_P1;SDS_P2;PMS_P1;PMS_P2;Temp;Humidity;BMP_temperature;BMP_pressure;BME280_temperature;BME280_humidity;BME280_pressure;Samples;Min_cycle;Max_cycle;Signal;HPM_P1;HPM_P2
2021/03/16 00:01:47;;;;;;;6.57;1.70;;;;;;;;;;5056766;28;20482;-75
2021/03/16 00:04:22;;;;;;;4.20;1.97;;;;;;;;;;5056822;28;20478;-74
2021/03/16 00:06:51;;;;;;;8.03;1.60;;;;;;;;;;5057179;28;20560;-74
2021/03/16 00:09:20;;;;;;;6.93;1.90;;;;;;;;;;5057517;28;20464;-74
2021/03/16 00:11:49;;;;;;;4.50;1.47;;;;;;;;;;5057419;28;20527;-74
2021/03/16 00:14:18;;;;;;;5.33;1.53;;;;;;;;;;5057958;28;20795;-75
2021/03/16 00:16:48;;;;;;;5.60;1.27;;;;;;;;;;5057961;28;20434;-75
2021/03/16 00:19:16;;;;;;;5.63;1.97;;;;;;;;;;5057560;28;20518;-74
2021/03/16 00:21:46;;;;;;;4.00;1.10;;;;;;;;;;5058718;28;20893;-74
2021/03/16 00:24:26;;;;;;;5.40;1.60;;;;;;;;;;5058103;28;20857;-75
2021/03/16 00:26:55;;;;;;;2.67;1.33;;;;;;;;;;5058031;28;20459;-73
2021/03/16 00:29:27;;;;;;;3.23;1.60;;;;;;;;;;5058301;28;20496;-75
2021/03/16 00:32:06;;;;;;;7.37;2.10;;;;;;;;;;5057204;28;20442;-74
2021/03/16 00:34:37;;;;;;;9.60;1.93;;;;;;;;;;5057386;28;20465;-74
2021/03/16 00:37:07;;;;;;;2.87;1.43;;;;;;;;;;5056832;28;20456;-74
2021/03/16 00:39:42;;;;;;;6.50;2.10;;;;;;;;;;5056967;28;20459;-75
2021/03/16 00:42:12;;;;;;;3.47;1.90;;;;;;;;;;5057449;28;20490;-74
2021/03/16 00:44:39;;;;;;;4.73;1.17;;;;;;;;;;5056859;28;20461;-75
2021/03/16 00:47:15;;;;;;;7.63;1.37;;;;;;;;;;5056707;28;20547;-74
2021/03/16 00:49:44;;;;;;;5.30;1.60;;;;;;;;;;5057577;28;20494;-75
2021/03/16 00:52:13;;;;;;;4.53;1.27;;;;;;;;;;5057050;28;20719;-74
2021/03/16 00:54:43;;;;;;;6.97;2.50;;;;;;;;;;5057185;28;20454;-74
2021/03/16 00:57:11;;;;;;;8.10;2.07;;;;;;;;;;5056648;28;20539;-74
2021/03/16 00:59:39;;;;;;;4.17;1.20;;;;;;;;;;5056250;28;20471;-75
2021/03/16 01:02:12;;;;;;;4.20;1.50;;;;;;;;;;5056352;28;20477;-74
2021/03/16 01:04:45;;;;;;;6.50;1.33;;;;;;;;;;5057027;28;20468;-74
2021/03/16 01:07:15;;;;;;;3.87;2.40;;;;;;;;;;5056400;28;20439;-74
2021/03/16 01:09:43;;;;;;;3.27;1.07;;;;;;;;;;5057972;28;20749;-73
2021/03/16 01:12:11;;;;;;;4.77;1.50;;;;;;;;;;5056006;28;20444;-74
2021/03/16 01:14:43;;;;;;;7.43;2.03;;;;;;;;;;5057770;28;20454;-73
2021/03/16 01:17:14;;;;;;;6.00;1.67;;;;;;;;;;5057805;28;20472;-74
2021/03/16 01:19:45;;;;;;;10.03;2.10;;;;;;;;;;5055655;28;20467;-75
2021/03/16 01:22:14;;;;;;;5.13;1.40;;;;;;;;;;5056481;28;20547;-75
2021/03/16 01:24:43;;;;;;;6.20;1.10;;;;;;;;;;5056397;28;20494;-74
2021/03/16 01:27:13;;;;;;;6.07;1.80;;;;;;;;;;5055854;28;20533;-75
2021/03/16 01:29:45;;;;;;;4.57;1.70;;;;;;;;;;5056220;28;20791;-75
2021/03/16 01:32:15;;;;;;;4.03;1.40;;;;;;;;;;5056026;28;20450;-75
2021/03/16 01:34:55;;;;;;;2.23;1.40;;;;;;;;;;5056832;28;20499;-75
2021/03/16 01:37:22;;;;;;;3.70;1.70;;;;;;;;;;5057583;28;20871;-74
2021/03/16 01:39:50;;;;;;;8.23;1.50;;;;;;;;;;5056111;28;20458;-75
2021/03/16 01:42:17;;;;;;;8.60;1.40;;;;;;;;;;5057284;28;20505;-75
2021/03/16 01:44:45;;;;;;;2.73;1.37;;;;;;;;;;5058141;28;20479;-75
2021/03/16 01:47:13;;;;;;;1.70;0.93;;;;;;;;;;5060017;28;20476;-75
2021/03/16 01:49:41;;;;;;;3.63;1.13;;;;;;;;;;5060290;28;20450;-75
2021/03/16 01:52:12;;;;;;;3.43;1.40;;;;;;;;;;5060284;28;20465;-74
2021/03/16 01:54:41;;;;;;;5.43;1.67;;;;;;;;;;5060384;28;20506;-74
2021/03/16 01:57:09;;;;;;;3.67;1.53;;;;;;;;;;5060290;28;20462;-75
2021/03/16 01:59:37;;;;;;;2.80;1.70;;;;;;;;;;5060220;28;20829;-74
2021/03/16 02:02:07;;;;;;;3.97;1.30;;;;;;;;;;5060110;28;20492;-74
2021/03/16 02:04:34;;;;;;;4.43;1.37;;;;;;;;;;5061265;28;20462;-75
2021/03/16 02:07:07;;;;;;;4.10;1.10;;;;;;;;;;5060490;28;20899;-78
2021/03/16 02:09:39;;;;;;;7.23;1.87;;;;;;;;;;5061636;28;20480;-74
2021/03/16 02:12:08;;;;;;;2.50;1.00;;;;;;;;;;5060250;28;20469;-75
2021/03/16 02:14:37;;;;;;;6.40;1.20;;;;;;;;;;5063097;28;20478;-74
2021/03/16 02:17:08;;;;;;;7.37;1.43;;;;;;;;;;5066517;28;20510;-75
2021/03/16 02:19:53;;;;;;;2.80;1.17;;;;;;;;;;5079571;28;20545;-75
2021/03/16 02:22:28;;;;;;;4.43;1.63;;;;;;;;;;5070920;28;20485;-74
2021/03/16 02:25:05;;;;;;;3.80;1.40;;;;;;;;;;5080867;28;20441;-75
2021/03/16 02:27:41;;;;;;;3.70;1.30;;;;;;;;;;5077882;28;20540;-75
2021/03/16 02:30:13;;;;;;;9.10;2.23;;;;;;;;;;5077575;28;20460;-74
2021/03/16 02:32:41;;;;;;;2.07;1.23;;;;;;;;;;5075765;28;20542;-75
2021/03/16 02:35:14;;;;;;;4.23;1.33;;;;;;;;;;5071963;28;20450;-74
2021/03/16 02:37:51;;;;;;;3.47;0.90;;;;;;;;;;5070152;28;20453;-74
2021/03/16 02:40:20;;;;;;;3.97;1.67;;;;;;;;;;5061560;28;20461;-74
2021/03/16 02:42:48;;;;;;;3.27;1.27;;;;;;;;;;5059444;28;20488;-74
2021/03/16 02:45:16;;;;;;;6.17;1.83;;;;;;;;;;5063689;28;20526;-74
2021/03/16 02:47:46;;;;;;;4.30;0.97;;;;;;;;;;5077998;28;20456;-74
2021/03/16 02:50:17;;;;;;;7.77;2.50;;;;;;;;;;5077983;28;20805;-74
2021/03/16 02:52:44;;;;;;;2.53;1.33;;;;;;;;;;5077833;28;20448;-74
2021/03/16 02:55:12;;;;;;;5.23;1.70;;;;;;;;;;5078734;28;20453;-75
2021/03/16 02:57:43;;;;;;;3.70;1.43;;;;;;;;;;5063786;28;20457;-74
2021/03/16 03:00:44;;;;;;;1.90;1.20;;;;;;;;;;5078810;28;20495;-74
2021/03/16 03:03:12;;;;;;;2.27;1.17;;;;;;;;;;5063149;28;20451;-74
2021/03/16 03:05:40;;;;;;;3.57;1.03;;;;;;;;;;5072682;28;20457;-74
2021/03/16 03:08:10;;;;;;;4.70;1.30;;;;;;;;;;5060720;28;20452;-74
2021/03/16 03:10:37;;;;;;;2.90;1.37;;;;;;;;;;5059698;28;20916;-74
2021/03/16 03:13:05;;;;;;;4.10;1.00;;;;;;;;;;5060378;28;20452;-75
2021/03/16 03:15:33;;;;;;;6.30;1.60;;;;;;;;;;5061377;28;20536;-74
2021/03/16 03:18:01;;;;;;;6.33;1.27;;;;;;;;;;5077371;28;20716;-74
2021/03/16 03:20:29;;;;;;;1.90;1.20;;;;;;;;;;5059267;28;20465;-74
2021/03/16 03:23:01;;;;;;;3.87;1.30;;;;;;;;;;5069661;28;20500;-74
2021/03/16 03:25:31;;;;;;;3.43;1.37;;;;;;;;;;5079194;28;20453;-75
2021/03/16 03:28:02;;;;;;;2.80;1.53;;;;;;;;;;5079449;28;20453;-74
2021/03/16 03:30:30;;;;;;;3.47;1.10;;;;;;;;;;5079378;28;20460;-74
2021/03/16 03:33:00;;;;;;;1.60;1.03;;;;;;;;;;5071605;28;20873;-74
2021/03/16 03:35:29;;;;;;;1.77;1.20;;;;;;;;;;5064410;28;20554;-75
2021/03/16 03:38:01;;;;;;;5.03;1.20;;;;;;;;;;5069927;28;20458;-74
2021/03/16 03:40:29;;;;;;;3.93;1.40;;;;;;;;;;5077183;28;20787;-75
2021/03/16 03:42:58;;;;;;;2.70;2.10;;;;;;;;;;5066004;28;20587;-74
2021/03/16 03:45:26;;;;;;;6.20;2.10;;;;;;;;;;5074301;28;20472;-74
2021/03/16 03:47:55;;;;;;;3.83;1.40;;;;;;;;;;5077063;28;20476;-74
2021/03/16 03:50:22;;;;;;;2.93;1.50;;;;;;;;;;5058284;28;20460;-75
2021/03/16 03:52:52;;;;;;;10.10;1.97;;;;;;;;;;5067841;28;20446;-75
2021/03/16 03:55:19;;;;;;;5.57;1.70;;;;;;;;;;5058776;28;20454;-74
2021/03/16 03:57:48;;;;;;;3.60;1.80;;;;;;;;;;5063773;28;20452;-74
2021/03/16 04:03:02;;;;;;;2.10;1.47;;;;;;;;;;5062735;28;20913;-75
2021/03/16 04:05:30;;;;;;;4.50;1.93;;;;;;;;;;5077493;28;20473;-75
2021/03/16 04:07:59;;;;;;;5.67;2.00;;;;;;;;;;5076629;28;20468;-74
2021/03/16 04:10:26;;;;;;;8.73;1.97;;;;;;;;;;5066095;28;20755;-74
2021/03/16 04:12:55;;;;;;;4.50;1.50;;;;;;;;;;5067006;28;20507;-74
2021/03/16 04:15:25;;;;;;;4.37;1.87;;;;;;;;;;5066410;28;20814;-74
2021/03/16 04:17:53;;;;;;;3.80;1.63;;;;;;;;;;5065486;28;20449;-74
2021/03/16 04:20:22;;;;;;;9.00;1.97;;;;;;;;;;5069420;28;20580;-75
2021/03/16 04:22:50;;;;;;;2.43;1.20;;;;;;;;;;5066813;28;20896;-74
2021/03/16 04:25:24;;;;;;;2.37;1.50;;;;;;;;;;5065441;28;20463;-73
2021/03/16 04:27:51;;;;;;;3.60;1.60;;;;;;;;;;5079736;28;20440;-74
2021/03/16 04:30:19;;;;;;;6.40;2.13;;;;;;;;;;5080201;28;20464;-74
2021/03/16 04:32:56;;;;;;;4.27;1.50;;;;;;;;;;5077496;28;20457;-74
2021/03/16 04:35:30;;;;;;;4.37;1.53;;;;;;;;;;5070244;28;20728;-75
2021/03/16 04:37:57;;;;;;;4.07;1.80;;;;;;;;;;5062194;28;20457;-73
2021/03/16 04:40:28;;;;;;;5.60;1.80;;;;;;;;;;5075519;28;20457;-74
2021/03/16 04:42:59;;;;;;;5.60;1.80;;;;;;;;;;5078232;28;20484;-74
2021/03/16 04:45:41;;;;;;;6.80;3.00;;;;;;;;;;5076075;28;20517;-74
2021/03/16 04:48:09;;;;;;;8.97;3.67;;;;;;;;;;5071067;28;20460;-75
2021/03/16 04:50:46;;;;;;;6.13;3.07;;;;;;;;;;5068048;28;20592;-74
2021/03/16 04:53:17;;;;;;;6.00;3.03;;;;;;;;;;5063816;28;20722;-74
2021/03/16 04:55:52;;;;;;;8.30;5.07;;;;;;;;;;5067461;28;20448;-75
2021/03/16 04:58:20;;;;;;;15.10;4.50;;;;;;;;;;5064424;28;20457;-74
2021/03/16 05:00:48;;;;;;;12.63;5.90;;;;;;;;;;5062428;28;20511;-74
2021/03/16 05:03:16;;;;;;;6.80;4.50;;;;;;;;;;5064933;28;20490;-74
2021/03/16 05:05:44;;;;;;;13.10;6.27;;;;;;;;;;5057572;28;20622;-74
2021/03/16 05:08:12;;;;;;;11.03;5.67;;;;;;;;;;5057161;28;20919;-75
2021/03/16 05:10:39;;;;;;;18.60;6.80;;;;;;;;;;5064598;28;20522;-75
2021/03/16 05:13:10;;;;;;;16.10;5.80;;;;;;;;;;5076295;28;20485;-74
2021/03/16 05:15:38;;;;;;;17.40;6.00;;;;;;;;;;5076793;28;20480;-74
2021/03/16 05:18:05;;;;;;;13.30;6.97;;;;;;;;;;5076517;28;20519;-75
2021/03/16 05:20:33;;;;;;;21.50;6.60;;;;;;;;;;5076497;28;20506;-75
2021/03/16 05:23:03;;;;;;;11.10;5.53;;;;;;;;;;5067837;28;20769;-75
2021/03/16 05:25:34;;;;;;;16.33;6.23;;;;;;;;;;5060154;28;20554;-75
2021/03/16 05:28:01;;;;;;;10.97;5.00;;;;;;;;;;5077323;28;20457;-74
2021/03/16 05:30:34;;;;;;;31.13;5.53;;;;;;;;;;5074278;28;20456;-74
2021/03/16 05:33:07;;;;;;;14.83;5.17;;;;;;;;;;5059291;28;20749;-74
2021/03/16 05:35:34;;;;;;;14.93;6.10;;;;;;;;;;5057975;28;20952;-75
2021/03/16 05:38:07;;;;;;;11.73;5.67;;;;;;;;;;5056225;28;20479;-75
2021/03/16 05:40:36;;;;;;;19.87;5.20;;;;;;;;;;5070080;28;20488;-74
2021/03/16 05:43:04;;;;;;;12.90;4.40;;;;;;;;;;5063834;28;20482;-74
2021/03/16 05:45:35;;;;;;;14.23;3.80;;;;;;;;;;5073056;28;20596;-74
2021/03/16 05:48:08;;;;;;;8.47;4.00;;;;;;;;;;5073488;28;20460;-74
2021/03/16 05:50:35;;;;;;;19.53;4.23;;;;;;;;;;5071702;28;20572;-74
2021/03/16 05:53:03;;;;;;;11.70;5.90;;;;;;;;;;5067661;28;20544;-74
2021/03/16 05:55:36;;;;;;;18.03;4.87;;;;;;;;;;5058031;28;20914;-74
2021/03/16 05:58:03;;;;;;;15.37;4.03;;;;;;;;;;5074218;28;20457;-74
2021/03/16 06:00:36;;;;;;;9.50;3.57;;;;;;;;;;5076783;28;20445;-74
2021/03/16 06:03:05;;;;;;;9.87;4.07;;;;;;;;;;5057313;28;20773;-74
2021/03/16 06:05:33;;;;;;;9.47;5.37;;;;;;;;;;5061861;28;20543;-74
2021/03/16 06:08:01;;;;;;;11.87;3.80;;;;;;;;;;5075747;28;21040;-74
2021/03/16 06:10:35;;;;;;;13.97;5.30;;;;;;;;;;5077488;28;20453;-74
2021/03/16 06:13:17;;;;;;;12.93;4.47;;;;;;;;;;5075781;28;20481;-74
2021/03/16 06:15:55;;;;;;;19.03;5.33;;;;;;;;;;5075235;28;20786;-73
2021/03/16 06:18:26;;;;;;;13.73;4.60;;;;;;;;;;5075653;28;20531;-74
2021/03/16 06:21:01;;;;;;;13.97;5.53;;;;;;;;;;5074860;28;20540;-74
2021/03/16 06:23:50;;;;;;;22.67;5.17;;;;;;;;;;5074421;28;20460;-74
2021/03/16 06:26:24;;;;;;;15.73;4.77;;;;;;;;;;5066399;28;20875;-74
2021/03/16 06:29:05;;;;;;;12.80;4.20;;;;;;;;;;5075921;28;20445;-74
2021/03/16 06:31:39;;;;;;;11.97;4.70;;;;;;;;;;5075125;28;20986;-74
2021/03/16 06:34:06;;;;;;;8.20;3.90;;;;;;;;;;5078567;28;20433;-75
2021/03/16 06:36:40;;;;;;;17.23;3.80;;;;;;;;;;5080501;28;20676;-74
2021/03/16 06:39:17;;;;;;;9.27;3.53;;;;;;;;;;5078770;28;20844;-74
2021/03/16 06:41:49;;;;;;;17.10;4.63;;;;;;;;;;5077247;28;20494;-74
2021/03/16 06:44:18;;;;;;;20.50;4.10;;;;;;;;;;5078367;28;20460;-74
2021/03/16 06:46:52;;;;;;;13.30;4.43;;;;;;;;;;5077163;28;20990;-74
2021/03/16 06:49:24;;;;;;;9.70;3.60;;;;;;;;;;5078058;28;20513;-74
2021/03/16 06:51:53;;;;;;;8.80;3.70;;;;;;;;;;5078841;28;20470;-74
2021/03/16 06:54:23;;;;;;;12.43;3.77;;;;;;;;;;5076941;28;21022;-74
2021/03/16 06:56:57;;;;;;;9.37;3.57;;;;;;;;;;5071842;28;20820;-75
2021/03/16 06:59:30;;;;;;;13.77;4.20;;;;;;;;;;5058221;28;20476;-74
2021/03/16 07:01:59;;;;;;;11.43;2.93;;;;;;;;;;5055748;28;20493;-74
2021/03/16 07:04:39;;;;;;;11.33;2.23;;;;;;;;;;5058525;28;20861;-76
2021/03/16 07:07:13;;;;;;;6.30;2.77;;;;;;;;;;5057920;28;20454;-75
2021/03/16 07:09:42;;;;;;;17.93;3.90;;;;;;;;;;5057425;28;20475;-75
2021/03/16 07:12:10;;;;;;;12.73;3.43;;;;;;;;;;5059548;28;20541;-74
2021/03/16 07:14:46;;;;;;;9.90;2.10;;;;;;;;;;5077515;28;20923;-75
2021/03/16 07:17:19;;;;;;;6.70;1.53;;;;;;;;;;5072301;28;20462;-74
2021/03/16 07:20:01;;;;;;;5.60;2.33;;;;;;;;;;5058574;28;20790;-76
2021/03/16 07:22:29;;;;;;;5.60;1.57;;;;;;;;;;5056554;28;20476;-75
2021/03/16 07:25:07;;;;;;;12.20;3.37;;;;;;;;;;5056876;28;20460;-75
2021/03/16 07:27:41;;;;;;;3.30;1.57;;;;;;;;;;5060205;28;20450;-75
2021/03/16 07:30:19;;;;;;;11.00;2.63;;;;;;;;;;5077363;28;21091;-75
2021/03/16 07:33:02;;;;;;;3.37;1.90;;;;;;;;;;5077258;28;20445;-75
2021/03/16 07:35:44;;;;;;;17.43;2.70;;;;;;;;;;5078423;28;20453;-75
2021/03/16 07:38:14;;;;;;;5.70;2.23;;;;;;;;;;5079466;28;20506;-75
2021/03/16 07:40:43;;;;;;;8.80;1.70;;;;;;;;;;5075561;28;20457;-74
2021/03/16 07:43:13;;;;;;;4.50;1.50;;;;;;;;;;5075744;28;20474;-75
2021/03/16 07:45:45;;;;;;;2.27;1.23;;;;;;;;;;5076808;28;20503;-74
2021/03/16 07:48:39;;;;;;;8.37;1.90;;;;;;;;;;5068073;28;20453;-74
2021/03/16 07:51:18;;;;;;;5.70;1.67;;;;;;;;;;5057419;28;20453;-74
2021/03/16 07:53:55;;;;;;;6.20;2.33;;;;;;;;;;5057043;28;20442;-74
2021/03/16 07:56:26;;;;;;;13.90;1.50;;;;;;;;;;5055356;28;20519;-74
2021/03/16 07:58:56;;;;;;;16.90;2.13;;;;;;;;;;5056015;28;20450;-74
2021/03/16 08:01:24;;;;;;;7.10;1.10;;;;;;;;;;5055867;28;20518;-75
2021/03/16 08:04:00;;;;;;;5.93;1.33;;;;;;;;;;5054361;28;20465;-74
2021/03/16 08:06:31;;;;;;;8.83;2.33;;;;;;;;;;5054699;28;20445;-74
2021/03/16 08:09:02;;;;;;;7.00;2.07;;;;;;;;;;5074463;28;21047;-74
2021/03/16 08:11:42;;;;;;;5.60;1.83;;;;;;;;;;5078306;28;20442;-74
2021/03/16 08:14:16;;;;;;;21.73;2.23;;;;;;;;;;5076730;28;20908;-75
2021/03/16 08:16:47;;;;;;;4.97;1.77;;;;;;;;;;5079250;28;20533;-74
2021/03/16 08:19:28;;;;;;;3.60;1.50;;;;;;;;;;5078497;28;20892;-74
2021/03/16 08:21:59;;;;;;;5.17;1.40;;;;;;;;;;5075865;28;20489;-74
2021/03/16 08:24:39;;;;;;;2.77;1.17;;;;;;;;;;5076104;28;20518;-74
2021/03/16 08:27:20;;;;;;;4.23;1.00;;;;;;;;;;5056627;28;20453;-75
2021/03/16 08:29:49;;;;;;;13.60;1.43;;;;;;;;;;5057113;28;20470;-74
2021/03/16 08:32:38;;;;;;;14.97;1.97;;;;;;;;;;5058343;28;20483;-74
2021/03/16 08:35:11;;;;;;;7.20;2.00;;;;;;;;;;5054002;28;20447;-75
2021/03/16 08:37:47;;;;;;;3.83;2.10;;;;;;;;;;5069778;28;20595;-73
2021/03/16 08:40:30;;;;;;;9.33;2.00;;;;;;;;;;5068350;28;20449;-74
2021/03/16 08:43:08;;;;;;;7.67;1.57;;;;;;;;;;5055647;28;20589;-75
2021/03/16 08:45:54;;;;;;;5.40;1.70;;;;;;;;;;5071459;28;20914;-74
2021/03/16 08:48:35;;;;;;;5.33;1.30;;;;;;;;;;5075752;28;20493;-74
2021/03/16 08:51:11;;;;;;;7.63;2.20;;;;;;;;;;5076227;28;20688;-76
2021/03/16 08:54:09;;;;;;;;;;;;;;;;;;;;;
2021/03/16 08:59:36;;;;;;;8.13;1.90;;;;;;;;;;5060488;28;20893;-74
2021/03/16 09:02:19;;;;;;;8.43;1.87;;;;;;;;;;5064141;28;20758;-75
2021/03/16 09:08:05;;;;;;;9.10;2.23;;;;;;;;;;5064486;28;20625;-75
2021/03/16 09:10:35;;;;;;;8.23;1.80;;;;;;;;;;5069713;28;20472;-75
2021/03/16 09:13:34;;;;;;;;;;;;;;;;;;;;;
2021/03/16 09:16:33;;;;;;;6.30;1.83;;;;;;;;;;5060016;28;20459;-74
2021/03/16 09:19:06;;;;;;;5.03;1.77;;;;;;;;;;5067047;28;20452;-74
2021/03/16 09:25:06;;;;;;;5.73;1.50;;;;;;;;;;5056326;28;20470;-74
2021/03/16 09:28:04;;;;;;;4.83;1.83;;;;;;;;;;5043201;28;20475;-74
2021/03/16 09:30:56;;;;;;;7.10;2.00;;;;;;;;;;5056928;28;20554;-74
2021/03/16 09:33:50;;;;;;;6.63;1.30;;;;;;;;;;5059614;28;20472;-74
2021/03/16 09:36:39;;;;;;;8.23;1.87;;;;;;;;;;5014193;28;20475;-75
2021/03/16 09:39:14;;;;;;;5.43;1.30;;;;;;;;;;5060155;28;20457;-74
2021/03/16 09:41:58;;;;;;;10.43;2.80;;;;;;;;;;5063558;28;20481;-74
2021/03/16 09:44:43;;;;;;;9.97;2.70;;;;;;;;;;5076182;28;20470;-74
2021/03/16 09:47:27;;;;;;;;;;;;;;;;;;;;;
2021/03/16 09:50:19;;;;;;;7.00;2.67;;;;;;;;;;5057657;28;20513;-74
2021/03/16 09:53:21;;;;;;;4.20;1.53;;;;;;;;;;5056034;28;20879;-74
2021/03/16 09:56:11;;;;;;;5.83;1.60;;;;;;;;;;5055687;28;20445;-74
2021/03/16 09:58:46;;;;;;;6.73;1.67;;;;;;;;;;5058329;28;20464;-75
2021/03/16 10:01:28;;;;;;;10.30;2.47;;;;;;;;;;5058406;28;20444;-74
2021/03/16 10:04:03;;;;;;;14.27;1.80;;;;;;;;;;5056092;28;20462;-74
2021/03/16 10:06:36;;;;;;;11.20;2.80;;;;;;;;;;5058846;28;20457;-74
2021/03/16 10:12:17;;;;;;;14.27;4.17;;;;;;;;;;5058243;28;20494;-74
2021/03/16 10:14:50;;;;;;;10.67;3.23;;;;;;;;;;5070363;28;20460;-74
2021/03/16 10:17:39;;;;;;;14.80;2.77;;;;;;;;;;5079615;28;20899;-74
2021/03/16 10:20:18;;;;;;;9.10;2.50;;;;;;;;;;5081004;28;20477;-74
2021/03/16 10:22:56;;;;;;;17.13;3.10;;;;;;;;;;5078016;28;20488;-74
2021/03/16 10:25:36;;;;;;;11.73;3.83;;;;;;;;;;5061654;28;20766;-74
2021/03/16 10:28:09;;;;;;;7.67;2.30;;;;;;;;;;5063528;28;20446;-74
2021/03/16 10:30:42;;;;;;;24.90;3.83;;;;;;;;;;5058880;28;20735;-73
2021/03/16 10:36:11;;;;;;;5.57;2.00;;;;;;;;;;5051322;28;20459;-73
2021/03/16 10:38:48;;;;;;;8.40;1.77;;;;;;;;;;5063629;28;20462;-73
2021/03/16 10:41:17;;;;;;;5.57;1.90;;;;;;;;;;5083041;28;20895;-74
2021/03/16 10:43:48;;;;;;;10.93;2.60;;;;;;;;;;5062935;28;20480;-74
2021/03/16 10:46:21;;;;;;;4.63;1.60;;;;;;;;;;5070087;28;20532;-73
2021/03/16 10:48:49;;;;;;;15.63;2.90;;;;;;;;;;5076934;28;20488;-73
2021/03/16 10:54:21;;;;;;;4.80;1.70;;;;;;;;;;5065696;28;20457;-75
2021/03/16 10:56:50;;;;;;;6.40;1.83;;;;;;;;;;5076900;28;20460;-73
2021/03/16 10:59:34;;;;;;;3.30;1.23;;;;;;;;;;5058631;28;20460;-74
2021/03/16 11:02:17;;;;;;;6.27;3.13;;;;;;;;;;5059749;28;20515;-74
2021/03/16 11:04:47;;;;;;;5.53;1.47;;;;;;;;;;5059625;28;20521;-73
2021/03/16 11:07:23;;;;;;;10.73;2.60;;;;;;;;;;5057847;28;20469;-74
2021/03/16 11:10:16;;;;;;;;;;;;;;;;;;;;;
2021/03/16 11:13:05;;;;;;;11.63;3.47;;;;;;;;;;5059083;28;20457;-74
2021/03/16 11:18:44;;;;;;;7.50;2.60;;;;;;;;;;5064232;28;20474;-75
2021/03/16 11:21:15;;;;;;;8.83;2.37;;;;;;;;;;5061786;28;20528;-74
2021/03/16 11:24:20;;;;;;;;;;;;;;;;;;;;;
2021/03/16 11:33:03;;;;;;;8.70;2.03;;;;;;;;;;5042996;28;20448;-74
2021/03/16 11:35:32;;;;;;;10.80;2.20;;;;;;;;;;5079332;28;20561;-74
2021/03/16 11:38:06;;;;;;;4.77;1.43;;;;;;;;;;5061178;28;20714;-74
2021/03/16 11:40:58;;;;;;;4.07;2.03;;;;;;;;;;5059554;28;20458;-74
2021/03/16 11:43:42;;;;;;;11.70;3.23;;;;;;;;;;5059568;28;20493;-74
2021/03/16 11:46:10;;;;;;;4.27;2.10;;;;;;;;;;5058550;28;20475;-73
2021/03/16 11:48:43;;;;;;;7.17;2.43;;;;;;;;;;5057640;28;20490;-74
2021/03/16 11:51:20;;;;;;;7.93;2.33;;;;;;;;;;5062746;28;20810;-73
2021/03/16 11:53:54;;;;;;;12.50;2.20;;;;;;;;;;5067968;28;20461;-74
2021/03/16 11:56:37;;;;;;;9.33;2.60;;;;;;;;;;5059140;28;20486;-73
2021/03/16 11:59:15;;;;;;;13.20;3.87;;;;;;;;;;5059845;28;20841;-74
2021/03/16 12:01:59;;;;;;;5.23;2.53;;;;;;;;;;5058611;28;20888;-74
2021/03/16 12:04:31;;;;;;;7.70;2.93;;;;;;;;;;5058310;28;20466;-74
2021/03/16 12:07:03;;;;;;;9.90;2.53;;;;;;;;;;5058402;28;20469;-74
2021/03/16 12:09:31;;;;;;;9.50;3.50;;;;;;;;;;5056684;28;20554;-74
2021/03/16 12:12:04;;;;;;;8.53;3.10;;;;;;;;;;5062403;28;20505;-75
2021/03/16 12:14:38;;;;;;;4.87;1.80;;;;;;;;;;5076954;28;20498;-74
2021/03/16 12:17:05;;;;;;;10.30;3.53;;;;;;;;;;5076147;28;20755;-74
2021/03/16 12:19:39;;;;;;;7.67;4.33;;;;;;;;;;5080656;28;20492;-75
2021/03/16 12:22:07;;;;;;;12.30;3.80;;;;;;;;;;5068422;28;20480;-74
2021/03/16 12:24:35;;;;;;;6.80;2.53;;;;;;;;;;5069261;28;20476;-74
2021/03/16 12:27:03;;;;;;;4.90;2.47;;;;;;;;;;5061625;28;20466;-74
2021/03/16 12:29:36;;;;;;;15.50;3.40;;;;;;;;;;5071888;28;20462;-74
2021/03/16 12:32:03;;;;;;;9.70;3.70;;;;;;;;;;5071398;28;20558;-74
2021/03/16 12:34:31;;;;;;;7.83;3.43;;;;;;;;;;5058571;28;20454;-74
2021/03/16 12:37:04;;;;;;;7.80;3.90;;;;;;;;;;5059347;28;20469;-74
2021/03/16 12:39:38;;;;;;;8.90;2.23;;;;;;;;;;5057456;28;20464;-74
2021/03/16 12:42:08;;;;;;;7.87;2.53;;;;;;;;;;5065919;28;20499;-74
2021/03/16 12:44:36;;;;;;;11.93;3.30;;;;;;;;;;5057851;28;20462;-73
2021/03/16 12:49:52;;;;;;;11.13;3.80;;;;;;;;;;5075888;28;20453;-74
2021/03/16 12:52:19;;;;;;;8.83;2.27;;;;;;;;;;5079112;28;20458;-74
2021/03/16 12:55:06;;;;;;;11.73;3.23;;;;;;;;;;5074278;28;20462;-74
2021/03/16 13:00:39;;;;;;;8.13;2.60;;;;;;;;;;5065677;28;20449;-73
2021/03/16 13:03:11;;;;;;;9.73;2.20;;;;;;;;;;5058207;28;20483;-74
2021/03/16 13:05:40;;;;;;;5.37;1.90;;;;;;;;;;5078175;28;20466;-73
2021/03/16 13:08:11;;;;;;;4.27;3.10;;;;;;;;;;5068472;28;20471;-73
2021/03/16 13:10:40;;;;;;;6.80;2.40;;;;;;;;;;5075610;28;20458;-73
2021/03/16 13:13:11;;;;;;;5.67;2.20;;;;;;;;;;5071713;28;20519;-73
2021/03/16 13:18:25;;;;;;;5.80;1.63;;;;;;;;;;5051109;28;20820;-73
2021/03/16 13:20:53;;;;;;;8.57;1.53;;;;;;;;;;5058030;28;20820;-73
2021/03/16 13:23:26;;;;;;;2.20;0.80;;;;;;;;;;5060735;28;20488;-73
2021/03/16 13:26:02;;;;;;;7.23;2.27;;;;;;;;;;5068312;28;20912;-74
2021/03/16 13:28:54;;;;;;;5.83;2.63;;;;;;;;;;5057613;28;20461;-73
2021/03/16 13:31:30;;;;;;;6.47;2.73;;;;;;;;;;5056725;28;20443;-74
2021/03/16 13:34:02;;;;;;;3.73;1.20;;;;;;;;;;5056875;28;20533;-74
2021/03/16 13:36:34;;;;;;;5.00;2.17;;;;;;;;;;5063819;28;20459;-74
2021/03/16 13:39:18;;;;;;;5.27;1.20;;;;;;;;;;5077389;28;20498;-74
2021/03/16 13:44:44;;;;;;;7.33;1.70;;;;;;;;;;5064429;28;20550;-75
2021/03/16 13:47:20;;;;;;;5.60;1.90;;;;;;;;;;5059601;28;20453;-75
2021/03/16 13:55:40;;;;;;;2.77;1.93;;;;;;;;;;5074120;28;20444;-74
2021/03/16 13:58:27;;;;;;;11.33;1.80;;;;;;;;;;5077071;28;20465;-73
2021/03/16 14:01:01;;;;;;;3.70;1.50;;;;;;;;;;5033811;28;20515;-73
2021/03/16 14:06:37;;;;;;;6.13;2.40;;;;;;;;;;5062916;28;20531;-76
2021/03/16 14:15:30;;;;;;;15.20;5.77;;;;;;;;;;5021437;28;20526;-76
2021/03/16 14:21:33;;;;;;;;;;;;;;;;;;;;;
2021/03/16 14:27:01;;;;;;;5.40;1.93;;;;;;;;;;5070256;28;20439;-75
2021/03/16 14:33:17;;;;;;;6.30;2.13;;;;;;;;;;5054894;28;20445;-76
2021/03/16 14:35:54;;;;;;;3.70;1.90;;;;;;;;;;4994383;28;20808;-75
2021/03/16 14:38:25;;;;;;;4.90;1.30;;;;;;;;;;4992929;28;20506;-75
2021/03/16 14:41:18;;;;;;;6.00;1.80;;;;;;;;;;4996185;28;20572;-73
2021/03/16 14:46:44;;;;;;;3.90;1.47;;;;;;;;;;4972792;28;20465;-73
2021/03/16 14:49:29;;;;;;;6.40;2.13;;;;;;;;;;5048718;28;20451;-74
2021/03/16 14:52:08;;;;;;;2.40;1.13;;;;;;;;;;5077721;28;20456;-74
2021/03/16 14:54:44;;;;;;;2.83;1.20;;;;;;;;;;5077945;28;20791;-74
2021/03/16 14:57:20;;;;;;;4.57;1.87;;;;;;;;;;5068968;28;20527;-74
2021/03/16 15:00:11;;;;;;;10.67;2.00;;;;;;;;;;5059047;28;20497;-74
2021/03/16 15:02:56;;;;;;;3.47;1.10;;;;;;;;;;5059421;28;20548;-72
2021/03/16 15:05:31;;;;;;;6.37;1.27;;;;;;;;;;5058605;28;20452;-74
2021/03/16 15:08:07;;;;;;;5.07;1.67;;;;;;;;;;5059879;28;20788;-74
2021/03/16 15:10:46;;;;;;;5.53;1.93;;;;;;;;;;5059089;28;20471;-74
2021/03/16 15:13:25;;;;;;;3.17;1.33;;;;;;;;;;5066754;28;20459;-76
2021/03/16 15:15:54;;;;;;;3.30;0.90;;;;;;;;;;5080806;28;20793;-75
2021/03/16 15:18:23;;;;;;;7.87;1.47;;;;;;;;;;5079106;28;20452;-74
2021/03/16 15:20:59;;;;;;;7.53;3.80;;;;;;;;;;5068502;28;20828;-74
2021/03/16 15:26:50;;;;;;;10.90;2.40;;;;;;;;;;5064269;28;20398;-74
2021/03/16 15:29:18;;;;;;;4.03;1.33;;;;;;;;;;5063329;28;20536;-76
2021/03/16 15:32:00;;;;;;;12.63;1.33;;;;;;;;;;5064417;28;20527;-75
2021/03/16 15:34:40;;;;;;;;;;;;;;;;;;;;;
2021/03/16 15:37:08;;;;;;;5.73;2.03;;;;;;;;;;5059754;28;20436;-74
2021/03/16 15:51:26;;;;;;;6.23;2.03;;;;;;;;;;5075162;28;20881;-74
2021/03/16 15:54:18;;;;;;;11.40;2.30;;;;;;;;;;5078105;28;20473;-74
2021/03/16 16:00:00;;;;;;;5.03;1.57;;;;;;;;;;5071573;28;20695;-75
2021/03/16 16:05:57;;;;;;;2.60;1.30;;;;;;;;;;5064519;28;20459;-75
2021/03/16 16:08:30;;;;;;;2.40;1.10;;;;;;;;;;5058198;28;20481;-75
2021/03/16 16:11:11;;;;;;;7.07;2.47;;;;;;;;;;5059657;28;20434;-74
2021/03/16 16:16:51;;;;;;;3.63;1.10;;;;;;;;;;4976314;28;20455;-72
2021/03/16 16:19:20;;;;;;;1.50;0.80;;;;;;;;;;5057733;28;20497;-76
2021/03/16 16:22:14;;;;;;;5.57;1.43;;;;;;;;;;5058232;28;20456;-74
2021/03/16 16:25:14;;;;;;;9.37;1.90;;;;;;;;;;5053260;28;20960;-74
2021/03/16 16:27:49;;;;;;;5.53;0.97;;;;;;;;;;5077531;28;20506;-75
2021/03/16 16:39:51;;;;;;;2.60;0.90;;;;;;;;;;5026878;28;20488;-74
2021/03/16 16:42:31;;;;;;;4.73;1.17;;;;;;;;;;5048275;28;20469;-74
2021/03/16 16:45:02;;;;;;;1.10;0.63;;;;;;;;;;5070128;28;20886;-74
2021/03/16 16:47:33;;;;;;;3.73;0.93;;;;;;;;;;5061301;28;20496;-74
2021/03/16 16:50:13;;;;;;;1.70;0.90;;;;;;;;;;5070642;28;20450;-75
2021/03/16 16:52:43;;;;;;;2.40;1.37;;;;;;;;;;5067288;28;20474;-74
2021/03/16 16:55:14;;;;;;;2.70;1.03;;;;;;;;;;5057129;28;20455;-75
2021/03/16 16:57:55;;;;;;;2.83;0.90;;;;;;;;;;5060644;28;20519;-76
2021/03/16 17:00:55;;;;;;;5.50;0.73;;;;;;;;;;5076414;28;20694;-74
2021/03/16 17:03:23;;;;;;;3.33;1.00;;;;;;;;;;5076063;28;20469;-75
2021/03/16 17:06:00;;;;;;;2.80;0.87;;;;;;;;;;5078637;28;20734;-74
2021/03/16 17:08:34;;;;;;;3.03;1.00;;;;;;;;;;5077857;28;20457;-72
2021/03/16 17:11:02;;;;;;;2.80;1.00;;;;;;;;;;5076375;28;20452;-74